sensor_id;sensor_type;location;lat;lon;timestamp;pressure;altitude;pressure_sealevel;temperature;humidity
62710;BME280;48770;51.624;5.886;2023-06-19T00:00:27;100671.22;;;27.78;34.23
62710;BME280;48770;51.624;5.886;2023-06-19T00:02:52;100676.84;;;27.78;34.59
62710;BME280;48770;51.624;5.886;2023-06-19T00:05:18;100676.06;;;27.77;34.31
62710;BME280;48770;51.624;5.886;2023-06-19T00:07:43;100688.88;;;27.78;34.60
62710;BME280;48770;51.624;5.886;2023-06-19T00:10:08;100692.09;;;27.77;34.19
62710;BME280;48770;51.624;5.886;2023-06-19T00:12:34;100690.09;;;27.77;34.44
62710;BME280;48770;51.624;5.886;2023-06-19T00:14:59;100700.13;;;27.78;34.60
62710;BME280;48770;51.624;5.886;2023-06-19T00:17:24;100694.91;;;27.77;34.33
62710;BME280;48770;51.624;5.886;2023-06-19T00:19:53;100700.53;;;27.77;34.42
62710;BME280;48770;51.624;5.886;2023-06-19T00:22:18;100700.53;;;27.77;34.54
62710;BME280;48770;51.624;5.886;2023-06-19T00:24:44;100699.72;;;27.76;34.23
62710;BME280;48770;51.624;5.886;2023-06-19T00:27:09;100696.94;;;27.76;34.41
62710;BME280;48770;51.624;5.886;2023-06-19T00:29:34;100710.97;;;27.76;34.35
62710;BME280;48770;51.624;5.886;2023-06-19T00:32:00;100716.59;;;27.76;34.33
62710;BME280;48770;51.624;5.886;2023-06-19T00:34:25;100717.38;;;27.77;34.53
62710;BME280;48770;51.624;5.886;2023-06-19T00:36:51;100720.19;;;27.77;34.59
62710;BME280;48770;51.624;5.886;2023-06-19T00:39:19;100724.22;;;27.76;34.14
62710;BME280;48770;51.624;5.886;2023-06-19T00:41:44;100727.03;;;27.76;34.19
62710;BME280;48770;51.624;5.886;2023-06-19T00:44:13;100729.84;;;27.76;34.18
62710;BME280;48770;51.624;5.886;2023-06-19T00:46:40;100732.66;;;27.76;34.41
62710;BME280;48770;51.624;5.886;2023-06-19T00:49:06;100738.25;;;27.76;34.22
62710;BME280;48770;51.624;5.886;2023-06-19T00:51:32;100728.63;;;27.77;34.48
62710;BME280;48770;51.624;5.886;2023-06-19T00:53:57;100734.25;;;27.77;34.32
62710;BME280;48770;51.624;5.886;2023-06-19T00:56:22;100735.47;;;27.76;34.41
62710;BME280;48770;51.624;5.886;2023-06-19T00:58:48;100743.09;;;27.75;34.61
62710;BME280;48770;51.624;5.886;2023-06-19T01:01:13;100745.91;;;27.75;34.75
62710;BME280;48770;51.624;5.886;2023-06-19T01:03:39;100743.88;;;27.76;34.53
62710;BME280;48770;51.624;5.886;2023-06-19T01:06:12;100743.09;;;27.75;34.51
62710;BME280;48770;51.624;5.886;2023-06-19T01:08:54;100743.09;;;27.75;34.25
62710;BME280;48770;51.624;5.886;2023-06-19T01:11:23;100749.91;;;27.74;34.44
62710;BME280;48770;51.624;5.886;2023-06-19T01:13:55;100742.28;;;27.75;34.31
62710;BME280;48770;51.624;5.886;2023-06-19T01:16:23;100752.72;;;27.74;34.18
62710;BME280;48770;51.624;5.886;2023-06-19T01:18:48;100747.09;;;27.74;34.24
62710;BME280;48770;51.624;5.886;2023-06-19T01:21:16;100747.91;;;27.75;34.14
62710;BME280;48770;51.624;5.886;2023-06-19T01:23:43;100751.50;;;27.75;34.22
62710;BME280;48770;51.624;5.886;2023-06-19T01:26:08;100747.09;;;27.74;34.49
62710;BME280;48770;51.624;5.886;2023-06-19T01:28:35;100749.91;;;27.74;34.44
62710;BME280;48770;51.624;5.886;2023-06-19T01:31:04;100742.28;;;27.75;34.27
62710;BME280;48770;51.624;5.886;2023-06-19T01:33:32;100747.09;;;27.74;34.20
62710;BME280;48770;51.624;5.886;2023-06-19T01:35:58;100745.91;;;27.75;34.43
62710;BME280;48770;51.624;5.886;2023-06-19T01:38:25;100747.91;;;27.75;34.51
62710;BME280;48770;51.624;5.886;2023-06-19T01:40:53;100747.09;;;27.74;34.20
62710;BME280;48770;51.624;5.886;2023-06-19T01:43:20;100745.91;;;27.75;34.36
62710;BME280;48770;51.624;5.886;2023-06-19T01:45:46;100748.69;;;27.75;34.18
62710;BME280;48770;51.624;5.886;2023-06-19T01:48:13;100752.72;;;27.74;34.68
62710;BME280;48770;51.624;5.886;2023-06-19T01:50:39;100750.72;;;27.75;34.48
62710;BME280;48770;51.624;5.886;2023-06-19T01:53:04;100754.72;;;27.74;34.20
62710;BME280;48770;51.624;5.886;2023-06-19T01:55:30;100763.16;;;27.74;34.34
62710;BME280;48770;51.624;5.886;2023-06-19T01:57:55;100767.97;;;27.73;34.35
62710;BME280;48770;51.624;5.886;2023-06-19T02:00:21;100768.78;;;27.74;34.57
62710;BME280;48770;51.624;5.886;2023-06-19T02:02:46;100774.41;;;27.74;34.27
62710;BME280;48770;51.624;5.886;2023-06-19T02:05:12;100776.41;;;27.73;34.57
62710;BME280;48770;51.624;5.886;2023-06-19T02:07:38;100776.41;;;27.73;34.43
62710;BME280;48770;51.624;5.886;2023-06-19T02:10:03;100780.00;;;27.74;34.40
62710;BME280;48770;51.624;5.886;2023-06-19T02:12:30;100773.59;;;27.73;34.25
62710;BME280;48770;51.624;5.886;2023-06-19T02:14:55;100778.41;;;27.73;34.55
62710;BME280;48770;51.624;5.886;2023-06-19T02:17:21;100785.22;;;27.72;34.63
62710;BME280;48770;51.624;5.886;2023-06-19T02:19:46;100787.25;;;27.71;34.13
62710;BME280;48770;51.624;5.886;2023-06-19T02:22:11;100798.47;;;27.71;34.80
62710;BME280;48770;51.624;5.886;2023-06-19T02:24:36;100802.09;;;27.72;34.51
62710;BME280;48770;51.624;5.886;2023-06-19T02:27:02;100804.91;;;27.72;34.56
62710;BME280;48770;51.624;5.886;2023-06-19T02:29:27;100805.69;;;27.72;34.73
62710;BME280;48770;51.624;5.886;2023-06-19T02:31:55;100810.50;;;27.72;34.67
62710;BME280;48770;51.624;5.886;2023-06-19T02:34:20;100807.72;;;27.72;34.67
62710;BME280;48770;51.624;5.886;2023-06-19T02:36:49;100810.50;;;27.72;34.39
62710;BME280;48770;51.624;5.886;2023-06-19T02:39:14;100820.16;;;27.71;34.35
62710;BME280;48770;51.624;5.886;2023-06-19T02:41:40;100819.34;;;27.70;34.62
62710;BME280;48770;51.624;5.886;2023-06-19T02:44:08;100825.78;;;27.71;34.64
62710;BME280;48770;51.624;5.886;2023-06-19T02:46:33;100827.78;;;27.70;34.62
62710;BME280;48770;51.624;5.886;2023-06-19T02:48:58;100828.19;;;27.69;34.38
62710;BME280;48770;51.624;5.886;2023-06-19T02:51:24;100836.19;;;27.70;34.38
62710;BME280;48770;51.624;5.886;2023-06-19T02:53:50;100832.59;;;27.70;34.63
62710;BME280;48770;51.624;5.886;2023-06-19T02:56:15;100838.22;;;27.70;34.22
62710;BME280;48770;51.624;5.886;2023-06-19T02:58:40;100840.22;;;27.69;34.41
62710;BME280;48770;51.624;5.886;2023-06-19T03:01:06;100840.22;;;27.69;34.40
62710;BME280;48770;51.624;5.886;2023-06-19T03:03:33;100845.84;;;27.69;34.82
62710;BME280;48770;51.624;5.886;2023-06-19T03:06:04;100850.25;;;27.70;34.32
62710;BME280;48770;51.624;5.886;2023-06-19T03:08:29;100844.22;;;27.68;34.77
62710;BME280;48770;51.624;5.886;2023-06-19T03:10:55;100838.63;;;27.68;34.54
62710;BME280;48770;51.624;5.886;2023-06-19T03:13:20;100838.63;;;27.68;34.60
62710;BME280;48770;51.624;5.886;2023-06-19T03:15:45;100837.81;;;27.68;34.75
62710;BME280;48770;51.624;5.886;2023-06-19T03:18:10;100842.63;;;27.67;34.52
62710;BME280;48770;51.624;5.886;2023-06-19T03:20:36;100845.44;;;27.67;34.45
62710;BME280;48770;51.624;5.886;2023-06-19T03:23:01;100839.81;;;27.67;34.58
62710;BME280;48770;51.624;5.886;2023-06-19T03:25:27;100839.00;;;27.67;34.78
62710;BME280;48770;51.624;5.886;2023-06-19T03:27:52;100852.25;;;27.66;34.94
62710;BME280;48770;51.624;5.886;2023-06-19T03:30:17;100853.88;;;27.67;34.82
62710;BME280;48770;51.624;5.886;2023-06-19T03:32:44;100851.06;;;27.67;34.95
62710;BME280;48770;51.624;5.886;2023-06-19T03:35:09;100841.03;;;27.66;34.94
62710;BME280;48770;51.624;5.886;2023-06-19T03:37:35;100852.25;;;27.66;34.97
62710;BME280;48770;51.624;5.886;2023-06-19T03:40:01;100855.88;;;27.67;34.70
62710;BME280;48770;51.624;5.886;2023-06-19T03:42:26;100856.28;;;27.65;34.77
62710;BME280;48770;51.624;5.886;2023-06-19T03:44:51;100859.47;;;27.63;34.91
62710;BME280;48770;51.624;5.886;2023-06-19T03:47:16;100871.53;;;27.64;34.96
62710;BME280;48770;51.624;5.886;2023-06-19T03:49:42;100867.50;;;27.65;34.89
62710;BME280;48770;51.624;5.886;2023-06-19T03:52:07;100872.31;;;27.64;35.06
62710;BME280;48770;51.624;5.886;2023-06-19T03:54:33;100877.94;;;27.64;34.70
62710;BME280;48770;51.624;5.886;2023-06-19T03:56:58;100879.94;;;27.64;35.08
62710;BME280;48770;51.624;5.886;2023-06-19T03:59:23;100879.94;;;27.64;34.91
62710;BME280;48770;51.624;5.886;2023-06-19T04:01:49;100879.16;;;27.63;34.50
62710;BME280;48770;51.624;5.886;2023-06-19T04:04:14;100889.56;;;27.63;34.59
62710;BME280;48770;51.624;5.886;2023-06-19T04:06:39;100886.78;;;27.63;34.74
62710;BME280;48770;51.624;5.886;2023-06-19T04:09:05;100879.94;;;27.64;35.12
62710;BME280;48770;51.624;5.886;2023-06-19T04:11:30;100885.56;;;27.64;34.68
62710;BME280;48770;51.624;5.886;2023-06-19T04:13:56;100892.38;;;27.63;34.70
62710;BME280;48770;51.624;5.886;2023-06-19T04:16:21;100891.59;;;27.62;34.72
62710;BME280;48770;51.624;5.886;2023-06-19T04:18:46;100891.59;;;27.62;34.88
62710;BME280;48770;51.624;5.886;2023-06-19T04:21:12;100895.19;;;27.63;34.82
62710;BME280;48770;51.624;5.886;2023-06-19T04:23:37;100898.00;;;27.63;34.85
62710;BME280;48770;51.624;5.886;2023-06-19T04:26:02;100902.81;;;27.62;34.96
62710;BME280;48770;51.624;5.886;2023-06-19T04:28:27;100904.81;;;27.62;35.29
62710;BME280;48770;51.624;5.886;2023-06-19T04:30:53;100902.00;;;27.62;34.92
62710;BME280;48770;51.624;5.886;2023-06-19T04:33:28;100908.81;;;27.61;34.96
62710;BME280;48770;51.624;5.886;2023-06-19T04:35:57;100905.19;;;27.60;35.21
62710;BME280;48770;51.624;5.886;2023-06-19T04:38:23;100908.81;;;27.61;34.99
62710;BME280;48770;51.624;5.886;2023-06-19T04:40:49;100922.47;;;27.62;34.80
62710;BME280;48770;51.624;5.886;2023-06-19T04:43:15;100917.22;;;27.61;34.86
62710;BME280;48770;51.624;5.886;2023-06-19T04:45:40;100928.47;;;27.61;34.78
62710;BME280;48770;51.624;5.886;2023-06-19T04:48:05;100934.09;;;27.61;34.83
62710;BME280;48770;51.624;5.886;2023-06-19T04:50:31;100931.28;;;27.61;35.01
62710;BME280;48770;51.624;5.886;2023-06-19T04:52:56;100932.47;;;27.60;35.25
62710;BME280;48770;51.624;5.886;2023-06-19T04:55:21;100932.47;;;27.60;35.11
62710;BME280;48770;51.624;5.886;2023-06-19T04:57:47;100931.69;;;27.59;34.97
62710;BME280;48770;51.624;5.886;2023-06-19T05:00:12;100928.47;;;27.61;35.02
62710;BME280;48770;51.624;5.886;2023-06-19T05:02:39;100924.84;;;27.60;35.11
62710;BME280;48770;51.624;5.886;2023-06-19T05:05:09;100924.84;;;27.60;34.99
62710;BME280;48770;51.624;5.886;2023-06-19T05:07:34;100927.66;;;27.60;35.04
62710;BME280;48770;51.624;5.886;2023-06-19T05:09:59;100928.06;;;27.59;35.38
62710;BME280;48770;51.624;5.886;2023-06-19T05:12:24;100934.47;;;27.59;35.20
62710;BME280;48770;51.624;5.886;2023-06-19T05:14:50;100936.50;;;27.59;35.23
62710;BME280;48770;51.624;5.886;2023-06-19T05:17:15;100939.31;;;27.59;34.88
62710;BME280;48770;51.624;5.886;2023-06-19T05:19:41;100944.09;;;27.58;35.08
62710;BME280;48770;51.624;5.886;2023-06-19T05:22:06;100938.47;;;27.58;35.12
62710;BME280;48770;51.624;5.886;2023-06-19T05:24:32;100952.50;;;27.58;35.21
62710;BME280;48770;51.624;5.886;2023-06-19T05:26:57;100945.72;;;27.59;35.06
62710;BME280;48770;51.624;5.886;2023-06-19T05:29:23;100952.50;;;27.58;35.17
62710;BME280;48770;51.624;5.886;2023-06-19T05:31:48;100949.69;;;27.58;35.30
62710;BME280;48770;51.624;5.886;2023-06-19T05:34:13;100950.91;;;27.57;35.40
62710;BME280;48770;51.624;5.886;2023-06-19T05:36:38;100950.91;;;27.57;35.40
62710;BME280;48770;51.624;5.886;2023-06-19T05:39:04;100948.09;;;27.57;35.44
62710;BME280;48770;51.624;5.886;2023-06-19T05:41:29;100959.34;;;27.57;35.05
62710;BME280;48770;51.624;5.886;2023-06-19T05:43:56;100962.94;;;27.58;35.22
62710;BME280;48770;51.624;5.886;2023-06-19T05:46:21;100963.75;;;27.58;35.44
62710;BME280;48770;51.624;5.886;2023-06-19T05:48:47;100963.75;;;27.58;35.71
62710;BME280;48770;51.624;5.886;2023-06-19T05:51:12;100969.38;;;27.58;35.16
62710;BME280;48770;51.624;5.886;2023-06-19T05:53:37;100962.13;;;27.57;35.12
62710;BME280;48770;51.624;5.886;2023-06-19T05:56:04;100968.56;;;27.58;34.97
62710;BME280;48770;51.624;5.886;2023-06-19T05:58:30;100964.94;;;27.57;35.33
62710;BME280;48770;51.624;5.886;2023-06-19T06:00:56;100965.75;;;27.58;35.16
62710;BME280;48770;51.624;5.886;2023-06-19T06:03:23;100967.38;;;27.59;35.18
62710;BME280;48770;51.624;5.886;2023-06-19T06:05:50;100982.25;;;27.59;34.87
62710;BME280;48770;51.624;5.886;2023-06-19T06:08:15;100973.00;;;27.59;34.82
62710;BME280;48770;51.624;5.886;2023-06-19T06:10:40;100972.19;;;27.58;35.05
62710;BME280;48770;51.624;5.886;2023-06-19T06:13:06;100977.78;;;27.58;35.34
62710;BME280;48770;51.624;5.886;2023-06-19T06:15:31;100973.00;;;27.59;34.99
62710;BME280;48770;51.624;5.886;2023-06-19T06:17:56;100981.44;;;27.59;34.96
62710;BME280;48770;51.624;5.886;2023-06-19T06:20:22;100976.63;;;27.59;35.28
62710;BME280;48770;51.624;5.886;2023-06-19T06:22:47;100972.19;;;27.58;35.16
62710;BME280;48770;51.624;5.886;2023-06-19T06:25:12;100988.22;;;27.58;35.45
62710;BME280;48770;51.624;5.886;2023-06-19T06:27:38;100994.66;;;27.58;35.53
62710;BME280;48770;51.624;5.886;2023-06-19T06:30:03;100996.28;;;27.59;35.03
62710;BME280;48770;51.624;5.886;2023-06-19T06:32:29;101000.69;;;27.60;35.37
62710;BME280;48770;51.624;5.886;2023-06-19T06:34:56;101007.13;;;27.61;35.47
62710;BME280;48770;51.624;5.886;2023-06-19T06:37:21;101007.94;;;27.61;35.53
62710;BME280;48770;51.624;5.886;2023-06-19T06:39:50;101007.13;;;27.61;35.34
62710;BME280;48770;51.624;5.886;2023-06-19T06:42:16;101005.94;;;27.62;35.39
62710;BME280;48770;51.624;5.886;2023-06-19T06:44:41;101007.94;;;27.61;35.26
62710;BME280;48770;51.624;5.886;2023-06-19T06:47:07;101015.56;;;27.61;35.46
62710;BME280;48770;51.624;5.886;2023-06-19T06:49:32;101021.97;;;27.61;35.20
62710;BME280;48770;51.624;5.886;2023-06-19T06:51:57;101023.63;;;27.62;35.68
62710;BME280;48770;51.624;5.886;2023-06-19T06:54:23;101028.44;;;27.62;35.80
62710;BME280;48770;51.624;5.886;2023-06-19T06:56:48;101034.03;;;27.62;35.51
62710;BME280;48770;51.624;5.886;2023-06-19T06:59:13;101036.03;;;27.61;35.82
62710;BME280;48770;51.624;5.886;2023-06-19T07:01:41;101040.47;;;27.62;35.58
62710;BME280;48770;51.624;5.886;2023-06-19T07:04:07;101044.09;;;27.63;35.48
62710;BME280;48770;51.624;5.886;2023-06-19T07:06:32;101038.47;;;27.63;35.62
62710;BME280;48770;51.624;5.886;2023-06-19T07:08:57;101042.06;;;27.63;35.76
62710;BME280;48770;51.624;5.886;2023-06-19T07:11:23;101041.28;;;27.63;35.54
62710;BME280;48770;51.624;5.886;2023-06-19T07:13:48;101039.28;;;27.63;35.87
62710;BME280;48770;51.624;5.886;2023-06-19T07:16:13;101044.50;;;27.65;35.78
62710;BME280;48770;51.624;5.886;2023-06-19T07:18:39;101040.88;;;27.64;35.87
62710;BME280;48770;51.624;5.886;2023-06-19T07:21:11;101040.09;;;27.68;35.46
62710;BME280;48770;51.624;5.886;2023-06-19T07:23:39;101055.75;;;27.69;35.80
62710;BME280;48770;51.624;5.886;2023-06-19T07:26:05;101046.50;;;27.68;35.31
62710;BME280;48770;51.624;5.886;2023-06-19T07:28:30;101056.53;;;27.69;35.90
62710;BME280;48770;51.624;5.886;2023-06-19T07:30:56;101060.16;;;27.70;35.41
62710;BME280;48770;51.624;5.886;2023-06-19T07:33:21;101053.72;;;27.69;35.74
62710;BME280;48770;51.624;5.886;2023-06-19T07:35:47;101060.16;;;27.70;35.53
62710;BME280;48770;51.624;5.886;2023-06-19T07:38:12;101060.16;;;27.70;35.80
62710;BME280;48770;51.624;5.886;2023-06-19T07:40:37;101072.19;;;27.70;35.57
62710;BME280;48770;51.624;5.886;2023-06-19T07:43:02;101066.59;;;27.70;35.59
62710;BME280;48770;51.624;5.886;2023-06-19T07:45:28;101075.00;;;27.70;35.75
62710;BME280;48770;51.624;5.886;2023-06-19T07:47:57;101069.38;;;27.70;35.64
62710;BME280;48770;51.624;5.886;2023-06-19T07:50:22;101076.63;;;27.71;35.72
62710;BME280;48770;51.624;5.886;2023-06-19T07:52:48;101073.81;;;27.71;35.82
62710;BME280;48770;51.624;5.886;2023-06-19T07:55:13;101071.00;;;27.71;35.64
62710;BME280;48770;51.624;5.886;2023-06-19T07:57:38;101076.63;;;27.71;35.40
62710;BME280;48770;51.624;5.886;2023-06-19T08:00:04;101080.22;;;27.72;35.69
62710;BME280;48770;51.624;5.886;2023-06-19T08:02:36;101076.22;;;27.73;35.73
62710;BME280;48770;51.624;5.886;2023-06-19T08:05:02;101076.22;;;27.73;35.30
62710;BME280;48770;51.624;5.886;2023-06-19T08:07:28;101081.84;;;27.73;35.57
62710;BME280;48770;51.624;5.886;2023-06-19T08:09:53;101080.63;;;27.74;36.50
62710;BME280;48770;51.624;5.886;2023-06-19T08:12:18;101073.00;;;27.74;36.83
62710;BME280;48770;51.624;5.886;2023-06-19T08:14:44;101067.41;;;27.74;37.01
62710;BME280;48770;51.624;5.886;2023-06-19T08:17:09;101068.19;;;27.75;37.21
62710;BME280;48770;51.624;5.886;2023-06-19T08:19:34;101064.59;;;27.74;37.80
62710;BME280;48770;51.624;5.886;2023-06-19T08:22:00;101067.41;;;27.74;38.70
62710;BME280;48770;51.624;5.886;2023-06-19T08:24:25;101069.00;;;27.75;39.67
62710;BME280;48770;51.624;5.886;2023-06-19T08:26:50;101073.81;;;27.75;39.57
62710;BME280;48770;51.624;5.886;2023-06-19T08:29:17;101084.28;;;27.78;40.02
62710;BME280;48770;51.624;5.886;2023-06-19T08:31:43;101077.84;;;27.77;39.86
62710;BME280;48770;51.624;5.886;2023-06-19T08:34:09;101085.06;;;27.78;40.00
62710;BME280;48770;51.624;5.886;2023-06-19T08:36:35;101096.31;;;27.78;39.45
62710;BME280;48770;51.624;5.886;2023-06-19T08:39:01;101090.69;;;27.78;39.33
62710;BME280;48770;51.624;5.886;2023-06-19T08:41:26;101093.50;;;27.78;39.36
62710;BME280;48770;51.624;5.886;2023-06-19T08:43:52;101087.88;;;27.78;39.34
62710;BME280;48770;51.624;5.886;2023-06-19T08:46:18;101092.31;;;27.79;39.47
62710;BME280;48770;51.624;5.886;2023-06-19T08:48:44;101092.31;;;27.79;39.01
62710;BME280;48770;51.624;5.886;2023-06-19T08:51:10;101083.88;;;27.79;39.12
62710;BME280;48770;51.624;5.886;2023-06-19T08:53:44;101095.13;;;27.79;39.18
62710;BME280;48770;51.624;5.886;2023-06-19T08:56:10;101090.69;;;27.78;39.04
62710;BME280;48770;51.624;5.886;2023-06-19T08:58:36;101110.34;;;27.78;38.99
62710;BME280;48770;51.624;5.886;2023-06-19T09:01:02;101101.94;;;27.78;38.59
62710;BME280;48770;51.624;5.886;2023-06-19T09:03:27;101103.13;;;27.77;38.67
62710;BME280;48770;51.624;5.886;2023-06-19T09:05:52;101115.97;;;27.78;38.67
62710;BME280;48770;51.624;5.886;2023-06-19T09:08:19;101125.22;;;27.79;38.35
62710;BME280;48770;51.624;5.886;2023-06-19T09:10:58;101119.59;;;27.79;38.59
62710;BME280;48770;51.624;5.886;2023-06-19T09:13:24;101121.59;;;27.78;38.67
62710;BME280;48770;51.624;5.886;2023-06-19T09:16:00;101123.59;;;27.78;38.63
62710;BME280;48770;51.624;5.886;2023-06-19T09:18:29;101122.81;;;27.77;38.53
62710;BME280;48770;51.624;5.886;2023-06-19T09:20:55;101120.38;;;27.76;38.68
62710;BME280;48770;51.624;5.886;2023-06-19T09:23:20;101125.19;;;27.75;38.69
62710;BME280;48770;51.624;5.886;2023-06-19T09:25:47;101117.97;;;27.74;38.53
62710;BME280;48770;51.624;5.886;2023-06-19T09:28:24;101111.94;;;27.72;38.48
62710;BME280;48770;51.624;5.886;2023-06-19T09:31:02;101124.78;;;27.70;38.44
62710;BME280;48770;51.624;5.886;2023-06-19T09:33:31;101141.63;;;27.70;38.29
62710;BME280;48770;51.624;5.886;2023-06-19T09:35:58;101140.84;;;27.69;38.67
62710;BME280;48770;51.624;5.886;2023-06-19T09:38:27;101142.84;;;27.69;38.51
62710;BME280;48770;51.624;5.886;2023-06-19T09:40:54;101136.41;;;27.68;38.68
62710;BME280;48770;51.624;5.886;2023-06-19T09:43:26;101144.03;;;27.68;38.08
62710;BME280;48770;51.624;5.886;2023-06-19T09:45:55;101138.00;;;27.66;38.00
62710;BME280;48770;51.624;5.886;2023-06-19T09:48:27;101142.81;;;27.65;37.95
62710;BME280;48770;51.624;5.886;2023-06-19T09:50:54;101148.44;;;27.65;37.85
62710;BME280;48770;51.624;5.886;2023-06-19T09:53:23;101145.22;;;27.63;38.27
62710;BME280;48770;51.624;5.886;2023-06-19T09:55:49;101137.59;;;27.63;37.78
62710;BME280;48770;51.624;5.886;2023-06-19T09:58:19;101152.44;;;27.64;37.85
62710;BME280;48770;51.624;5.886;2023-06-19T10:00:45;101150.03;;;27.62;37.67
62710;BME280;48770;51.624;5.886;2023-06-19T10:03:13;101152.03;;;27.62;38.10
62710;BME280;48770;51.624;5.886;2023-06-19T10:05:38;101150.03;;;27.62;38.09
62710;BME280;48770;51.624;5.886;2023-06-19T10:08:04;101152.41;;;27.60;37.79
62710;BME280;48770;51.624;5.886;2023-06-19T10:10:30;101146.78;;;27.60;37.60
62710;BME280;48770;51.624;5.886;2023-06-19T10:12:57;101140.78;;;27.62;37.66
62710;BME280;48770;51.624;5.886;2023-06-19T10:15:25;101135.19;;;27.62;37.31
62710;BME280;48770;51.624;5.886;2023-06-19T10:17:52;101142.78;;;27.61;37.60
62710;BME280;48770;51.624;5.886;2023-06-19T10:20:35;101143.59;;;27.62;37.57
62710;BME280;48770;51.624;5.886;2023-06-19T10:23:05;101154.00;;;27.61;37.45
62710;BME280;48770;51.624;5.886;2023-06-19T10:25:37;101156.81;;;27.61;37.25
62710;BME280;48770;51.624;5.886;2023-06-19T10:28:03;101159.25;;;27.63;37.29
62710;BME280;48770;51.624;5.886;2023-06-19T10:30:32;101155.66;;;27.62;37.45
62710;BME280;48770;51.624;5.886;2023-06-19T10:32:58;101154.84;;;27.62;37.43
62710;BME280;48770;51.624;5.886;2023-06-19T10:35:24;101156.00;;;27.61;37.55
62710;BME280;48770;51.624;5.886;2023-06-19T10:37:49;101158.47;;;27.62;37.30
62710;BME280;48770;51.624;5.886;2023-06-19T10:40:15;101150.03;;;27.62;37.32
62710;BME280;48770;51.624;5.886;2023-06-19T10:42:41;101149.22;;;27.62;37.24
62710;BME280;48770;51.624;5.886;2023-06-19T10:45:09;101154.84;;;27.62;36.99
62710;BME280;48770;51.624;5.886;2023-06-19T10:47:35;101150.84;;;27.63;37.06
62710;BME280;48770;51.624;5.886;2023-06-19T10:50:01;101145.22;;;27.63;36.85
62710;BME280;48770;51.624;5.886;2023-06-19T10:52:29;101147.22;;;27.62;37.01
62710;BME280;48770;51.624;5.886;2023-06-19T10:54:56;101152.03;;;27.62;37.19
62710;BME280;48770;51.624;5.886;2023-06-19T10:57:29;101148.03;;;27.63;36.82
62710;BME280;48770;51.624;5.886;2023-06-19T10:59:54;101141.97;;;27.61;37.22
62710;BME280;48770;51.624;5.886;2023-06-19T11:02:20;101138.00;;;27.62;37.00
62710;BME280;48770;51.624;5.886;2023-06-19T11:04:45;101138.00;;;27.62;37.20
62710;BME280;48770;51.624;5.886;2023-06-19T11:07:10;101131.16;;;27.63;36.81
62710;BME280;48770;51.624;5.886;2023-06-19T11:09:37;101131.53;;;27.61;36.84
62710;BME280;48770;51.624;5.886;2023-06-19T11:12:02;101140.41;;;27.63;36.69
62710;BME280;48770;51.624;5.886;2023-06-19T11:14:29;101140.41;;;27.63;36.70
62710;BME280;48770;51.624;5.886;2023-06-19T11:16:55;101138.78;;;27.62;36.57
62710;BME280;48770;51.624;5.886;2023-06-19T11:19:21;101135.97;;;27.62;36.47
62710;BME280;48770;51.624;5.886;2023-06-19T11:21:52;101133.97;;;27.63;36.65
62710;BME280;48770;51.624;5.886;2023-06-19T11:24:18;101131.97;;;27.63;36.59
62710;BME280;48770;51.624;5.886;2023-06-19T11:26:46;101129.97;;;27.64;36.63
62710;BME280;48770;51.624;5.886;2023-06-19T11:29:16;101133.97;;;27.63;36.50
62710;BME280;48770;51.624;5.886;2023-06-19T11:31:43;101139.59;;;27.63;36.38
62710;BME280;48770;51.624;5.886;2023-06-19T11:34:09;101136.78;;;27.63;36.45
62710;BME280;48770;51.624;5.886;2023-06-19T11:36:38;101131.16;;;27.63;36.60
62710;BME280;48770;51.624;5.886;2023-06-19T11:39:04;101122.75;;;27.63;36.65
62710;BME280;48770;51.624;5.886;2023-06-19T11:41:32;101121.53;;;27.64;36.16
62710;BME280;48770;51.624;5.886;2023-06-19T11:44:02;101133.59;;;27.64;36.41
62710;BME280;48770;51.624;5.886;2023-06-19T11:46:29;101127.16;;;27.64;36.29
62710;BME280;48770;51.624;5.886;2023-06-19T11:48:56;101119.53;;;27.64;36.51
62710;BME280;48770;51.624;5.886;2023-06-19T11:51:21;101124.34;;;27.64;36.50
62710;BME280;48770;51.624;5.886;2023-06-19T11:53:46;101125.16;;;27.64;36.42
62710;BME280;48770;51.624;5.886;2023-06-19T11:56:12;101130.78;;;27.64;36.56
62710;BME280;48770;51.624;5.886;2023-06-19T11:58:37;101123.53;;;27.63;36.20
62710;BME280;48770;51.624;5.886;2023-06-19T12:01:02;101124.34;;;27.64;36.63
62710;BME280;48770;51.624;5.886;2023-06-19T12:03:28;101118.72;;;27.64;35.99
62710;BME280;48770;51.624;5.886;2023-06-19T12:05:53;101119.94;;;27.63;35.92
62710;BME280;48770;51.624;5.886;2023-06-19T12:08:18;101127.97;;;27.64;36.45
62710;BME280;48770;51.624;5.886;2023-06-19T12:10:43;101129.97;;;27.64;36.00
62710;BME280;48770;51.624;5.886;2023-06-19T12:13:09;101126.75;;;27.66;36.34
62710;BME280;48770;51.624;5.886;2023-06-19T12:15:34;101120.34;;;27.65;36.36
62710;BME280;48770;51.624;5.886;2023-06-19T12:17:59;101117.53;;;27.65;36.05
62710;BME280;48770;51.624;5.886;2023-06-19T12:20:25;101121.16;;;27.66;35.92
62710;BME280;48770;51.624;5.886;2023-06-19T12:22:50;101119.13;;;27.66;36.19
62710;BME280;48770;51.624;5.886;2023-06-19T12:25:15;101113.53;;;27.66;36.11
62710;BME280;48770;51.624;5.886;2023-06-19T12:27:41;101110.72;;;27.66;35.93
62710;BME280;48770;51.624;5.886;2023-06-19T12:30:07;101115.13;;;27.67;36.01
62710;BME280;48770;51.624;5.886;2023-06-19T12:32:33;101129.19;;;27.67;35.96
62710;BME280;48770;51.624;5.886;2023-06-19T12:34:58;101126.38;;;27.67;36.17
62710;BME280;48770;51.624;5.886;2023-06-19T12:37:23;101126.38;;;27.67;35.78
62710;BME280;48770;51.624;5.886;2023-06-19T12:39:50;101127.19;;;27.68;35.83
62710;BME280;48770;51.624;5.886;2023-06-19T12:42:15;101131.59;;;27.69;36.02
62710;BME280;48770;51.624;5.886;2023-06-19T12:44:41;101131.59;;;27.69;35.76